sensor_id;sensor_type;location;lat;lon;timestamp;P1;durP1;ratioP1;P2;durP2;ratioP2
19595;SDS011;9945;46.010;8.946;2023-04-15T00:01:40;0.80;;;0.80;;
19595;SDS011;9945;46.010;8.946;2023-04-15T00:04:07;0.50;;;0.50;;
19595;SDS011;9945;46.010;8.946;2023-04-15T00:06:35;1.50;;;1.07;;
19595;SDS011;9945;46.010;8.946;2023-04-15T00:09:05;1.00;;;0.90;;
19595;SDS011;9945;46.010;8.946;2023-04-15T00:11:32;0.73;;;0.67;;
19595;SDS011;9945;46.010;8.946;2023-04-15T00:13:58;0.90;;;0.90;;
19595;SDS011;9945;46.010;8.946;2023-04-15T00:16:25;1.87;;;0.70;;
19595;SDS011;9945;46.010;8.946;2023-04-15T00:18:52;2.83;;;0.67;;
19595;SDS011;9945;46.010;8.946;2023-04-15T00:21:19;1.57;;;0.90;;
19595;SDS011;9945;46.010;8.946;2023-04-15T00:23:46;1.43;;;0.80;;
19595;SDS011;9945;46.010;8.946;2023-04-15T00:26:18;2.17;;;0.60;;
19595;SDS011;9945;46.010;8.946;2023-04-15T00:28:44;1.37;;;0.70;;
19595;SDS011;9945;46.010;8.946;2023-04-15T00:31:11;0.70;;;0.70;;
19595;SDS011;9945;46.010;8.946;2023-04-15T00:33:39;0.40;;;0.40;;
19595;SDS011;9945;46.010;8.946;2023-04-15T00:36:06;1.00;;;0.90;;
19595;SDS011;9945;46.010;8.946;2023-04-15T00:38:34;1.10;;;1.00;;
19595;SDS011;9945;46.010;8.946;2023-04-15T00:41:01;1.10;;;0.97;;
19595;SDS011;9945;46.010;8.946;2023-04-15T00:43:30;0.90;;;0.83;;
19595;SDS011;9945;46.010;8.946;2023-04-15T00:45:57;1.30;;;1.20;;
19595;SDS011;9945;46.010;8.946;2023-04-15T00:48:26;1.40;;;1.03;;
19595;SDS011;9945;46.010;8.946;2023-04-15T00:50:53;1.20;;;1.10;;
19595;SDS011;9945;46.010;8.946;2023-04-15T00:53:20;0.87;;;0.83;;
19595;SDS011;9945;46.010;8.946;2023-04-15T00:55:47;1.07;;;0.80;;
19595;SDS011;9945;46.010;8.946;2023-04-15T00:58:15;0.60;;;0.60;;
19595;SDS011;9945;46.010;8.946;2023-04-15T01:00:43;0.60;;;0.60;;
19595;SDS011;9945;46.010;8.946;2023-04-15T01:03:11;1.30;;;0.60;;
19595;SDS011;9945;46.010;8.946;2023-04-15T01:05:39;2.97;;;1.20;;
19595;SDS011;9945;46.010;8.946;2023-04-15T01:08:06;1.53;;;1.20;;
19595;SDS011;9945;46.010;8.946;2023-04-15T01:10:33;1.40;;;1.30;;
19595;SDS011;9945;46.010;8.946;2023-04-15T01:13:01;1.97;;;1.27;;
19595;SDS011;9945;46.010;8.946;2023-04-15T01:15:28;1.40;;;1.10;;
19595;SDS011;9945;46.010;8.946;2023-04-15T01:17:57;1.63;;;1.50;;
19595;SDS011;9945;46.010;8.946;2023-04-15T01:20:25;3.00;;;2.03;;
19595;SDS011;9945;46.010;8.946;2023-04-15T01:22:53;1.50;;;1.40;;
19595;SDS011;9945;46.010;8.946;2023-04-15T01:25:26;5.82;;;1.00;;
19595;SDS011;9945;46.010;8.946;2023-04-15T01:27:57;1.20;;;1.13;;
19595;SDS011;9945;46.010;8.946;2023-04-15T01:30:24;2.17;;;1.37;;
19595;SDS011;9945;46.010;8.946;2023-04-15T01:32:51;2.57;;;1.17;;
19595;SDS011;9945;46.010;8.946;2023-04-15T01:35:18;1.37;;;0.90;;
19595;SDS011;9945;46.010;8.946;2023-04-15T01:37:46;1.50;;;1.40;;
19595;SDS011;9945;46.010;8.946;2023-04-15T01:40:15;0.87;;;0.87;;
19595;SDS011;9945;46.010;8.946;2023-04-15T01:42:43;1.00;;;1.00;;
19595;SDS011;9945;46.010;8.946;2023-04-15T01:45:11;2.40;;;1.10;;
19595;SDS011;9945;46.010;8.946;2023-04-15T01:47:38;0.83;;;0.83;;
19595;SDS011;9945;46.010;8.946;2023-04-15T01:50:05;1.20;;;1.10;;
19595;SDS011;9945;46.010;8.946;2023-04-15T01:52:33;1.03;;;0.93;;
19595;SDS011;9945;46.010;8.946;2023-04-15T01:55:01;2.03;;;0.60;;
19595;SDS011;9945;46.010;8.946;2023-04-15T01:57:28;1.07;;;1.00;;
19595;SDS011;9945;46.010;8.946;2023-04-15T01:59:56;0.80;;;0.80;;
19595;SDS011;9945;46.010;8.946;2023-04-15T02:02:23;0.90;;;0.90;;
19595;SDS011;9945;46.010;8.946;2023-04-15T02:04:50;1.40;;;0.90;;
19595;SDS011;9945;46.010;8.946;2023-04-15T02:07:17;1.27;;;1.10;;
19595;SDS011;9945;46.010;8.946;2023-04-15T02:09:44;1.23;;;1.13;;
19595;SDS011;9945;46.010;8.946;2023-04-15T02:12:11;1.30;;;1.20;;
19595;SDS011;9945;46.010;8.946;2023-04-15T02:14:38;0.93;;;0.93;;
19595;SDS011;9945;46.010;8.946;2023-04-15T02:17:06;1.40;;;1.00;;
19595;SDS011;9945;46.010;8.946;2023-04-15T02:19:33;0.90;;;0.83;;
19595;SDS011;9945;46.010;8.946;2023-04-15T02:22:00;0.87;;;0.87;;
19595;SDS011;9945;46.010;8.946;2023-04-15T02:24:28;0.90;;;0.80;;
19595;SDS011;9945;46.010;8.946;2023-04-15T02:26:55;2.30;;;1.00;;
19595;SDS011;9945;46.010;8.946;2023-04-15T02:29:22;0.83;;;0.70;;
19595;SDS011;9945;46.010;8.946;2023-04-15T02:31:49;1.10;;;0.97;;
19595;SDS011;9945;46.010;8.946;2023-04-15T02:34:17;0.67;;;0.60;;
19595;SDS011;9945;46.010;8.946;2023-04-15T02:36:44;0.60;;;0.60;;
19595;SDS011;9945;46.010;8.946;2023-04-15T02:39:12;1.07;;;0.77;;
19595;SDS011;9945;46.010;8.946;2023-04-15T02:41:41;1.10;;;1.00;;
19595;SDS011;9945;46.010;8.946;2023-04-15T02:44:11;0.80;;;0.77;;
19595;SDS011;9945;46.010;8.946;2023-04-15T02:46:38;0.80;;;0.77;;
19595;SDS011;9945;46.010;8.946;2023-04-15T02:49:05;0.90;;;0.90;;
19595;SDS011;9945;46.010;8.946;2023-04-15T02:51:34;0.70;;;0.70;;
19595;SDS011;9945;46.010;8.946;2023-04-15T02:54:01;1.70;;;1.10;;
19595;SDS011;9945;46.010;8.946;2023-04-15T02:56:28;1.93;;;0.73;;
19595;SDS011;9945;46.010;8.946;2023-04-15T02:58:55;1.03;;;0.70;;
19595;SDS011;9945;46.010;8.946;2023-04-15T03:01:22;0.70;;;0.70;;
19595;SDS011;9945;46.010;8.946;2023-04-15T03:03:50;0.70;;;0.70;;
19595;SDS011;9945;46.010;8.946;2023-04-15T03:06:17;0.77;;;0.77;;
19595;SDS011;9945;46.010;8.946;2023-04-15T03:08:45;0.93;;;0.70;;
19595;SDS011;9945;46.010;8.946;2023-04-15T03:11:12;1.57;;;0.87;;
19595;SDS011;9945;46.010;8.946;2023-04-15T03:13:40;0.73;;;0.73;;
19595;SDS011;9945;46.010;8.946;2023-04-15T03:16:07;1.90;;;0.70;;
19595;SDS011;9945;46.010;8.946;2023-04-15T03:18:34;0.57;;;0.57;;
19595;SDS011;9945;46.010;8.946;2023-04-15T03:21:01;0.63;;;0.63;;
19595;SDS011;9945;46.010;8.946;2023-04-15T03:23:29;1.57;;;1.00;;
19595;SDS011;9945;46.010;8.946;2023-04-15T03:26:00;0.97;;;0.90;;
19595;SDS011;9945;46.010;8.946;2023-04-15T03:28:27;0.77;;;0.77;;
19595;SDS011;9945;46.010;8.946;2023-04-15T03:30:54;0.63;;;0.63;;
19595;SDS011;9945;46.010;8.946;2023-04-15T03:33:21;0.80;;;0.80;;
19595;SDS011;9945;46.010;8.946;2023-04-15T03:35:49;0.93;;;0.67;;
19595;SDS011;9945;46.010;8.946;2023-04-15T03:38:16;1.30;;;0.90;;
19595;SDS011;9945;46.010;8.946;2023-04-15T03:40:44;1.33;;;0.83;;
19595;SDS011;9945;46.010;8.946;2023-04-15T03:43:13;0.73;;;0.73;;
19595;SDS011;9945;46.010;8.946;2023-04-15T03:45:40;1.43;;;0.93;;
19595;SDS011;9945;46.010;8.946;2023-04-15T03:48:07;1.57;;;1.00;;
19595;SDS011;9945;46.010;8.946;2023-04-15T03:50:34;2.77;;;0.97;;
19595;SDS011;9945;46.010;8.946;2023-04-15T03:53:01;0.80;;;0.80;;
19595;SDS011;9945;46.010;8.946;2023-04-15T03:55:28;0.67;;;0.50;;
19595;SDS011;9945;46.010;8.946;2023-04-15T03:57:55;0.80;;;0.80;;
19595;SDS011;9945;46.010;8.946;2023-04-15T04:00:23;0.77;;;0.77;;
19595;SDS011;9945;46.010;8.946;2023-04-15T04:02:50;0.73;;;0.67;;
19595;SDS011;9945;46.010;8.946;2023-04-15T04:05:17;0.87;;;0.87;;
19595;SDS011;9945;46.010;8.946;2023-04-15T04:07:43;2.07;;;0.77;;
19595;SDS011;9945;46.010;8.946;2023-04-15T04:10:10;1.10;;;0.97;;
19595;SDS011;9945;46.010;8.946;2023-04-15T04:12:37;0.80;;;0.80;;
19595;SDS011;9945;46.010;8.946;2023-04-15T04:15:04;1.30;;;0.67;;
19595;SDS011;9945;46.010;8.946;2023-04-15T04:17:33;1.43;;;0.80;;
19595;SDS011;9945;46.010;8.946;2023-04-15T04:20:00;0.80;;;0.80;;
19595;SDS011;9945;46.010;8.946;2023-04-15T04:22:27;0.80;;;0.80;;
19595;SDS011;9945;46.010;8.946;2023-04-15T04:24:54;0.83;;;0.83;;
19595;SDS011;9945;46.010;8.946;2023-04-15T04:27:23;0.70;;;0.70;;
19595;SDS011;9945;46.010;8.946;2023-04-15T04:29:50;1.30;;;0.80;;
19595;SDS011;9945;46.010;8.946;2023-04-15T04:32:17;0.70;;;0.50;;
19595;SDS011;9945;46.010;8.946;2023-04-15T04:34:45;0.80;;;0.67;;
19595;SDS011;9945;46.010;8.946;2023-04-15T04:37:12;1.80;;;0.77;;
19595;SDS011;9945;46.010;8.946;2023-04-15T04:39:39;0.93;;;0.90;;
19595;SDS011;9945;46.010;8.946;2023-04-15T04:42:06;0.90;;;0.90;;
19595;SDS011;9945;46.010;8.946;2023-04-15T04:44:32;0.80;;;0.80;;
19595;SDS011;9945;46.010;8.946;2023-04-15T04:46:59;1.13;;;0.90;;
19595;SDS011;9945;46.010;8.946;2023-04-15T04:49:26;0.80;;;0.80;;
19595;SDS011;9945;46.010;8.946;2023-04-15T04:51:54;0.80;;;0.80;;
19595;SDS011;9945;46.010;8.946;2023-04-15T04:54:22;1.13;;;1.00;;
19595;SDS011;9945;46.010;8.946;2023-04-15T04:56:49;1.00;;;0.90;;
19595;SDS011;9945;46.010;8.946;2023-04-15T04:59:16;0.80;;;0.80;;
19595;SDS011;9945;46.010;8.946;2023-04-15T05:01:42;1.03;;;0.80;;
19595;SDS011;9945;46.010;8.946;2023-04-15T05:04:09;1.87;;;1.00;;
19595;SDS011;9945;46.010;8.946;2023-04-15T05:06:36;1.23;;;1.20;;
19595;SDS011;9945;46.010;8.946;2023-04-15T05:09:04;0.90;;;0.90;;
19595;SDS011;9945;46.010;8.946;2023-04-15T05:11:31;1.77;;;0.90;;
19595;SDS011;9945;46.010;8.946;2023-04-15T05:13:58;0.97;;;0.93;;
19595;SDS011;9945;46.010;8.946;2023-04-15T05:16:26;1.20;;;1.10;;
19595;SDS011;9945;46.010;8.946;2023-04-15T05:18:53;1.57;;;1.10;;
19595;SDS011;9945;46.010;8.946;2023-04-15T05:21:20;1.13;;;0.80;;
19595;SDS011;9945;46.010;8.946;2023-04-15T05:23:47;0.70;;;0.70;;
19595;SDS011;9945;46.010;8.946;2023-04-15T05:26:15;1.13;;;1.03;;
19595;SDS011;9945;46.010;8.946;2023-04-15T05:28:42;1.03;;;1.03;;
19595;SDS011;9945;46.010;8.946;2023-04-15T05:31:09;1.57;;;1.00;;
19595;SDS011;9945;46.010;8.946;2023-04-15T05:33:36;0.80;;;0.80;;
19595;SDS011;9945;46.010;8.946;2023-04-15T05:36:03;2.67;;;0.80;;
19595;SDS011;9945;46.010;8.946;2023-04-15T05:38:30;1.13;;;0.90;;
19595;SDS011;9945;46.010;8.946;2023-04-15T05:40:57;0.80;;;0.80;;
19595;SDS011;9945;46.010;8.946;2023-04-15T05:43:25;3.50;;;0.97;;
19595;SDS011;9945;46.010;8.946;2023-04-15T05:45:52;0.90;;;0.90;;
19595;SDS011;9945;46.010;8.946;2023-04-15T05:48:19;1.87;;;1.10;;
19595;SDS011;9945;46.010;8.946;2023-04-15T05:50:46;1.43;;;0.90;;
19595;SDS011;9945;46.010;8.946;2023-04-15T05:53:13;0.73;;;0.73;;
19595;SDS011;9945;46.010;8.946;2023-04-15T05:55:40;1.30;;;1.20;;
19595;SDS011;9945;46.010;8.946;2023-04-15T05:58:07;1.50;;;1.20;;
19595;SDS011;9945;46.010;8.946;2023-04-15T06:00:35;1.30;;;1.07;;
19595;SDS011;9945;46.010;8.946;2023-04-15T06:03:02;1.60;;;1.30;;
19595;SDS011;9945;46.010;8.946;2023-04-15T06:05:30;1.53;;;1.10;;
19595;SDS011;9945;46.010;8.946;2023-04-15T06:07:57;1.20;;;1.10;;
19595;SDS011;9945;46.010;8.946;2023-04-15T06:10:24;0.80;;;0.80;;
19595;SDS011;9945;46.010;8.946;2023-04-15T06:12:51;1.03;;;0.90;;
19595;SDS011;9945;46.010;8.946;2023-04-15T06:15:18;0.93;;;0.83;;
19595;SDS011;9945;46.010;8.946;2023-04-15T06:17:46;1.63;;;0.83;;
19595;SDS011;9945;46.010;8.946;2023-04-15T06:20:13;1.23;;;1.13;;
19595;SDS011;9945;46.010;8.946;2023-04-15T06:22:40;1.80;;;1.30;;
19595;SDS011;9945;46.010;8.946;2023-04-15T06:25:07;0.87;;;0.77;;
19595;SDS011;9945;46.010;8.946;2023-04-15T06:27:35;3.33;;;1.10;;
19595;SDS011;9945;46.010;8.946;2023-04-15T06:30:02;1.33;;;0.93;;
19595;SDS011;9945;46.010;8.946;2023-04-15T06:32:29;2.90;;;1.13;;
19595;SDS011;9945;46.010;8.946;2023-04-15T06:34:57;1.67;;;0.87;;
19595;SDS011;9945;46.010;8.946;2023-04-15T06:37:24;0.90;;;0.90;;
19595;SDS011;9945;46.010;8.946;2023-04-15T06:39:51;0.90;;;0.80;;
19595;SDS011;9945;46.010;8.946;2023-04-15T06:42:17;1.40;;;1.00;;
19595;SDS011;9945;46.010;8.946;2023-04-15T06:44:45;0.87;;;0.87;;
19595;SDS011;9945;46.010;8.946;2023-04-15T06:47:11;1.93;;;0.83;;
19595;SDS011;9945;46.010;8.946;2023-04-15T06:49:39;2.15;;;0.80;;
19595;SDS011;9945;46.010;8.946;2023-04-15T06:52:08;3.20;;;1.10;;
19595;SDS011;9945;46.010;8.946;2023-04-15T06:54:36;2.50;;;1.23;;
19595;SDS011;9945;46.010;8.946;2023-04-15T06:57:03;0.77;;;0.77;;
19595;SDS011;9945;46.010;8.946;2023-04-15T06:59:31;0.90;;;0.90;;
19595;SDS011;9945;46.010;8.946;2023-04-15T07:01:58;3.33;;;1.00;;
19595;SDS011;9945;46.010;8.946;2023-04-15T07:04:24;1.15;;;1.05;;
19595;SDS011;9945;46.010;8.946;2023-04-15T07:06:51;1.13;;;1.00;;
19595;SDS011;9945;46.010;8.946;2023-04-15T07:09:21;1.77;;;1.10;;
19595;SDS011;9945;46.010;8.946;2023-04-15T07:11:47;1.10;;;1.00;;
19595;SDS011;9945;46.010;8.946;2023-04-15T07:14:15;1.08;;;0.93;;
19595;SDS011;9945;46.010;8.946;2023-04-15T07:16:42;1.40;;;1.30;;
19595;SDS011;9945;46.010;8.946;2023-04-15T07:19:09;1.48;;;0.77;;
19595;SDS011;9945;46.010;8.946;2023-04-15T07:21:36;3.70;;;1.10;;
19595;SDS011;9945;46.010;8.946;2023-04-15T07:24:03;23.55;;;5.38;;
19595;SDS011;9945;46.010;8.946;2023-04-15T07:26:32;8.70;;;2.05;;
19595;SDS011;9945;46.010;8.946;2023-04-15T07:28:59;6.25;;;2.10;;
19595;SDS011;9945;46.010;8.946;2023-04-15T07:31:26;7.85;;;1.70;;
19595;SDS011;9945;46.010;8.946;2023-04-15T07:33:53;0.80;;;0.80;;
19595;SDS011;9945;46.010;8.946;2023-04-15T07:36:19;2.08;;;0.82;;
19595;SDS011;9945;46.010;8.946;2023-04-15T07:38:46;0.70;;;0.70;;
19595;SDS011;9945;46.010;8.946;2023-04-15T07:41:13;1.55;;;0.80;;
19595;SDS011;9945;46.010;8.946;2023-04-15T07:43:41;0.77;;;0.68;;
19595;SDS011;9945;46.010;8.946;2023-04-15T07:46:09;0.73;;;0.65;;
19595;SDS011;9945;46.010;8.946;2023-04-15T07:48:35;0.70;;;0.70;;
19595;SDS011;9945;46.010;8.946;2023-04-15T07:51:02;0.70;;;0.70;;
19595;SDS011;9945;46.010;8.946;2023-04-15T07:53:30;1.58;;;1.10;;
19595;SDS011;9945;46.010;8.946;2023-04-15T07:55:57;1.52;;;1.10;;
19595;SDS011;9945;46.010;8.946;2023-04-15T07:58:24;1.50;;;1.40;;
19595;SDS011;9945;46.010;8.946;2023-04-15T08:00:53;0.98;;;0.98;;
19595;SDS011;9945;46.010;8.946;2023-04-15T08:03:20;1.20;;;1.10;;
19595;SDS011;9945;46.010;8.946;2023-04-15T08:05:47;1.00;;;1.00;;
19595;SDS011;9945;46.010;8.946;2023-04-15T08:08:14;4.95;;;4.50;;
19595;SDS011;9945;46.010;8.946;2023-04-15T08:10:41;1.25;;;0.80;;
19595;SDS011;9945;46.010;8.946;2023-04-15T08:13:08;1.05;;;0.95;;
19595;SDS011;9945;46.010;8.946;2023-04-15T08:15:35;0.80;;;0.65;;
19595;SDS011;9945;46.010;8.946;2023-04-15T08:18:03;0.95;;;0.73;;
19595;SDS011;9945;46.010;8.946;2023-04-15T08:20:30;1.35;;;0.93;;
19595;SDS011;9945;46.010;8.946;2023-04-15T08:22:57;0.40;;;0.40;;
19595;SDS011;9945;46.010;8.946;2023-04-15T08:25:24;0.70;;;0.70;;
19595;SDS011;9945;46.010;8.946;2023-04-15T08:27:53;0.70;;;0.70;;
19595;SDS011;9945;46.010;8.946;2023-04-15T08:30:20;1.20;;;1.10;;
19595;SDS011;9945;46.010;8.946;2023-04-15T08:32:49;2.78;;;0.98;;
19595;SDS011;9945;46.010;8.946;2023-04-15T08:35:18;0.80;;;0.80;;
19595;SDS011;9945;46.010;8.946;2023-04-15T08:37:45;1.02;;;0.70;;
19595;SDS011;9945;46.010;8.946;2023-04-15T08:40:12;1.15;;;0.90;;
19595;SDS011;9945;46.010;8.946;2023-04-15T08:42:40;1.08;;;0.70;;
19595;SDS011;9945;46.010;8.946;2023-04-15T08:45:09;0.88;;;0.88;;
19595;SDS011;9945;46.010;8.946;2023-04-15T08:47:36;0.90;;;0.90;;
19595;SDS011;9945;46.010;8.946;2023-04-15T08:50:05;1.17;;;1.05;;
19595;SDS011;9945;46.010;8.946;2023-04-15T08:52:36;0.75;;;0.68;;
19595;SDS011;9945;46.010;8.946;2023-04-15T08:55:04;0.85;;;0.85;;
19595;SDS011;9945;46.010;8.946;2023-04-15T08:57:33;1.20;;;1.10;;
19595;SDS011;9945;46.010;8.946;2023-04-15T09:00:02;2.58;;;1.30;;
19595;SDS011;9945;46.010;8.946;2023-04-15T09:02:30;1.95;;;1.20;;
19595;SDS011;9945;46.010;8.946;2023-04-15T09:04:57;1.73;;;1.20;;
19595;SDS011;9945;46.010;8.946;2023-04-15T09:07:25;1.00;;;1.00;;
19595;SDS011;9945;46.010;8.946;2023-04-15T09:09:53;1.80;;;1.08;;
19595;SDS011;9945;46.010;8.946;2023-04-15T09:12:19;2.75;;;1.55;;
19595;SDS011;9945;46.010;8.946;2023-04-15T09:14:47;1.05;;;0.98;;
19595;SDS011;9945;46.010;8.946;2023-04-15T09:17:14;0.57;;;0.57;;
19595;SDS011;9945;46.010;8.946;2023-04-15T09:19:44;1.23;;;1.13;;
19595;SDS011;9945;46.010;8.946;2023-04-15T09:22:11;1.55;;;1.20;;
19595;SDS011;9945;46.010;8.946;2023-04-15T09:24:39;1.20;;;1.10;;
19595;SDS011;9945;46.010;8.946;2023-04-15T09:27:09;2.70;;;1.50;;
19595;SDS011;9945;46.010;8.946;2023-04-15T09:29:36;1.17;;;1.17;;
19595;SDS011;9945;46.010;8.946;2023-04-15T09:32:09;3.58;;;1.33;;
19595;SDS011;9945;46.010;8.946;2023-04-15T09:34:37;1.67;;;1.55;;
19595;SDS011;9945;46.010;8.946;2023-04-15T09:37:03;2.05;;;1.58;;
19595;SDS011;9945;46.010;8.946;2023-04-15T09:42:15;2.17;;;1.95;;
19595;SDS011;9945;46.010;8.946;2023-04-15T09:44:48;1.40;;;1.30;;
19595;SDS011;9945;46.010;8.946;2023-04-15T09:47:25;1.58;;;1.48;;
19595;SDS011;9945;46.010;8.946;2023-04-15T09:49:56;2.65;;;1.63;;
19595;SDS011;9945;46.010;8.946;2023-04-15T09:52:23;1.77;;;1.50;;
19595;SDS011;9945;46.010;8.946;2023-04-15T09:54:51;2.03;;;1.65;;
19595;SDS011;9945;46.010;8.946;2023-04-15T09:57:22;3.28;;;1.27;;
19595;SDS011;9945;46.010;8.946;2023-04-15T09:59:48;2.10;;;1.42;;
19595;SDS011;9945;46.010;8.946;2023-04-15T10:02:15;1.75;;;1.65;;
19595;SDS011;9945;46.010;8.946;2023-04-15T10:04:44;2.58;;;1.70;;
19595;SDS011;9945;46.010;8.946;2023-04-15T10:07:13;5.78;;;1.40;;
19595;SDS011;9945;46.010;8.946;2023-04-15T10:09:42;6.50;;;2.20;;
19595;SDS011;9945;46.010;8.946;2023-04-15T10:12:11;3.30;;;2.25;;
19595;SDS011;9945;46.010;8.946;2023-04-15T10:14:40;3.30;;;2.00;;
19595;SDS011;9945;46.010;8.946;2023-04-15T10:17:09;3.00;;;2.10;;
19595;SDS011;9945;46.010;8.946;2023-04-15T10:19:37;2.65;;;1.80;;
19595;SDS011;9945;46.010;8.946;2023-04-15T10:22:04;2.10;;;1.90;;
19595;SDS011;9945;46.010;8.946;2023-04-15T10:24:31;2.05;;;1.80;;
19595;SDS011;9945;46.010;8.946;2023-04-15T10:26:59;1.50;;;1.40;;
19595;SDS011;9945;46.010;8.946;2023-04-15T10:29:26;4.47;;;1.73;;
19595;SDS011;9945;46.010;8.946;2023-04-15T10:31:54;2.28;;;2.08;;
19595;SDS011;9945;46.010;8.946;2023-04-15T10:34:21;2.80;;;2.50;;
19595;SDS011;9945;46.010;8.946;2023-04-15T10:36:50;4.80;;;2.03;;
19595;SDS011;9945;46.010;8.946;2023-04-15T10:42:11;3.63;;;1.98;;
19595;SDS011;9945;46.010;8.946;2023-04-15T10:44:41;5.90;;;2.08;;
19595;SDS011;9945;46.010;8.946;2023-04-15T10:47:11;3.17;;;2.55;;
19595;SDS011;9945;46.010;8.946;2023-04-15T10:49:42;6.47;;;2.90;;
19595;SDS011;9945;46.010;8.946;2023-04-15T10:52:11;6.95;;;2.80;;
19595;SDS011;9945;46.010;8.946;2023-04-15T10:54:39;3.30;;;2.13;;
19595;SDS011;9945;46.010;8.946;2023-04-15T10:57:06;1.88;;;1.60;;
19595;SDS011;9945;46.010;8.946;2023-04-15T11:02:45;2.65;;;2.40;;
19595;SDS011;9945;46.010;8.946;2023-04-15T11:05:13;2.60;;;2.10;;
19595;SDS011;9945;46.010;8.946;2023-04-15T11:07:46;2.90;;;2.40;;
19595;SDS011;9945;46.010;8.946;2023-04-15T11:13:20;3.42;;;2.25;;
19595;SDS011;9945;46.010;8.946;2023-04-15T11:15:56;4.75;;;2.60;;
19595;SDS011;9945;46.010;8.946;2023-04-15T11:18:27;3.03;;;2.38;;
19595;SDS011;9945;46.010;8.946;2023-04-15T11:21:00;4.10;;;2.42;;
19595;SDS011;9945;46.010;8.946;2023-04-15T11:23:33;3.20;;;2.33;;
19595;SDS011;9945;46.010;8.946;2023-04-15T11:26:01;5.55;;;3.40;;
19595;SDS011;9945;46.010;8.946;2023-04-15T11:28:33;3.75;;;2.33;;
19595;SDS011;9945;46.010;8.946;2023-04-15T11:31:07;4.20;;;2.33;;
19595;SDS011;9945;46.010;8.946;2023-04-15T11:33:37;4.57;;;2.20;;
19595;SDS011;9945;46.010;8.946;2023-04-15T11:36:11;6.55;;;2.45;;
19595;SDS011;9945;46.010;8.946;2023-04-15T11:38:41;2.20;;;2.00;;
19595;SDS011;9945;46.010;8.946;2023-04-15T11:41:09;3.53;;;2.30;;
19595;SDS011;9945;46.010;8.946;2023-04-15T11:43:36;2.63;;;2.08;;
19595;SDS011;9945;46.010;8.946;2023-04-15T11:46:03;4.00;;;2.00;;
19595;SDS011;9945;46.010;8.946;2023-04-15T11:48:30;3.60;;;2.42;;
19595;SDS011;9945;46.010;8.946;2023-04-15T11:51:00;2.30;;;2.10;;
19595;SDS011;9945;46.010;8.946;2023-04-15T11:53:35;4.10;;;2.00;;
19595;SDS011;9945;46.010;8.946;2023-04-15T11:56:05;2.25;;;2.00;;
19595;SDS011;9945;46.010;8.946;2023-04-15T11:58:34;3.08;;;2.80;;
19595;SDS011;9945;46.010;8.946;2023-04-15T12:01:03;2.65;;;1.98;;
19595;SDS011;9945;46.010;8.946;2023-04-15T12:03:35;3.17;;;2.60;;
19595;SDS011;9945;46.010;8.946;2023-04-15T12:06:06;3.97;;;2.10;;
19595;SDS011;9945;46.010;8.946;2023-04-15T12:11:31;3.35;;;2.20;;
19595;SDS011;9945;46.010;8.946;2023-04-15T12:14:02;3.72;;;2.33;;
19595;SDS011;9945;46.010;8.946;2023-04-15T12:16:32;6.38;;;2.33;;
19595;SDS011;9945;46.010;8.946;2023-04-15T12:19:04;3.58;;;2.55;;
19595;SDS011;9945;46.010;8.946;2023-04-15T12:21:35;5.22;;;2.30;;
19595;SDS011;9945;46.010;8.946;2023-04-15T12:24:04;4.00;;;2.60;;
19595;SDS011;9945;46.010;8.946;2023-04-15T12:26:33;3.25;;;2.42;;
19595;SDS011;9945;46.010;8.946;2023-04-15T12:29:02;6.07;;;2.45;;
19595;SDS011;9945;46.010;8.946;2023-04-15T12:31:31;4.25;;;3.00;;
19595;SDS011;9945;46.010;8.946;2023-04-15T12:33:58;4.28;;;2.17;;
19595;SDS011;9945;46.010;8.946;2023-04-15T12:36:26;3.30;;;2.60;;
19595;SDS011;9945;46.010;8.946;2023-04-15T12:38:56;3.47;;;2.63;;
19595;SDS011;9945;46.010;8.946;2023-04-15T12:41:23;5.28;;;2.38;;
19595;SDS011;9945;46.010;8.946;2023-04-15T12:43:50;6.13;;;2.88;;
19595;SDS011;9945;46.010;8.946;2023-04-15T12:46:17;4.20;;;2.72;;
19595;SDS011;9945;46.010;8.946;2023-04-15T12:48:44;4.18;;;2.47;;
19595;SDS011;9945;46.010;8.946;2023-04-15T12:51:11;4.60;;;2.33;;
19595;SDS011;9945;46.010;8.946;2023-04-15T12:53:39;7.03;;;3.08;;
19595;SDS011;9945;46.010;8.946;2023-04-15T12:56:07;8.63;;;2.67;;
19595;SDS011;9945;46.010;8.946;2023-04-15T12:58:34;3.75;;;2.47;;
19595;SDS011;9945;46.010;8.946;2023-04-15T13:01:01;3.97;;;2.33;;
19595;SDS011;9945;46.010;8.946;2023-04-15T13:03:28;5.70;;;2.95;;
19595;SDS011;9945;46.010;8.946;2023-04-15T13:05:55;3.67;;;2.75;;
19595;SDS011;9945;46.010;8.946;2023-04-15T13:08:22;4.40;;;2.50;;
19595;SDS011;9945;46.010;8.946;2023-04-15T13:10:49;3.13;;;2.70;;
19595;SDS011;9945;46.010;8.946;2023-04-15T13:13:17;4.90;;;2.58;;
19595;SDS011;9945;46.010;8.946;2023-04-15T13:15:44;5.40;;;2.55;;
19595;SDS011;9945;46.010;8.946;2023-04-15T13:18:11;3.08;;;2.20;;
19595;SDS011;9945;46.010;8.946;2023-04-15T13:20:38;6.25;;;3.03;;
19595;SDS011;9945;46.010;8.946;2023-04-15T13:23:05;5.18;;;3.00;;
19595;SDS011;9945;46.010;8.946;2023-04-15T13:25:32;4.03;;;2.42;;
19595;SDS011;9945;46.010;8.946;2023-04-15T13:27:59;5.18;;;2.35;;
19595;SDS011;9945;46.010;8.946;2023-04-15T13:30:27;3.13;;;2.40;;
19595;SDS011;9945;46.010;8.946;2023-04-15T13:32:55;3.58;;;2.45;;
19595;SDS011;9945;46.010;8.946;2023-04-15T13:35:22;2.40;;;1.73;;
19595;SDS011;9945;46.010;8.946;2023-04-15T13:37:49;2.42;;;1.65;;
19595;SDS011;9945;46.010;8.946;2023-04-15T13:40:15;1.80;;;1.70;;
19595;SDS011;9945;46.010;8.946;2023-04-15T13:42:42;3.65;;;1.70;;
19595;SDS011;9945;46.010;8.946;2023-04-15T13:45:10;2.25;;;1.67;;
19595;SDS011;9945;46.010;8.946;2023-04-15T13:47:38;1.83;;;1.30;;
19595;SDS011;9945;46.010;8.946;2023-04-15T13:50:06;2.30;;;1.35;;
19595;SDS011;9945;46.010;8.946;2023-04-15T13:52:33;1.95;;;1.30;;
19595;SDS011;9945;46.010;8.946;2023-04-15T13:55:00;1.10;;;0.90;;
19595;SDS011;9945;46.010;8.946;2023-04-15T13:57:27;4.45;;;1.52;;
19595;SDS011;9945;46.010;8.946;2023-04-15T13:59:54;3.08;;;1.38;;
19595;SDS011;9945;46.010;8.946;2023-04-15T14:02:21;2.17;;;1.30;;
19595;SDS011;9945;46.010;8.946;2023-04-15T14:04:50;1.63;;;1.30;;
19595;SDS011;9945;46.010;8.946;2023-04-15T14:07:17;2.03;;;1.80;;
19595;SDS011;9945;46.010;8.946;2023-04-15T14:09:44;2.30;;;2.13;;
19595;SDS011;9945;46.010;8.946;2023-04-15T14:12:12;1.45;;;1.35;;
19595;SDS011;9945;46.010;8.946;2023-04-15T14:14:39;1.42;;;1.25;;
19595;SDS011;9945;46.010;8.946;2023-04-15T14:17:06;2.25;;;1.40;;
19595;SDS011;9945;46.010;8.946;2023-04-15T14:19:33;1.50;;;1.13;;
19595;SDS011;9945;46.010;8.946;2023-04-15T14:22:02;3.97;;;1.40;;
19595;SDS011;9945;46.010;8.946;2023-04-15T14:24:28;1.23;;;1.10;;
19595;SDS011;9945;46.010;8.946;2023-04-15T14:26:55;1.65;;;1.10;;
19595;SDS011;9945;46.010;8.946;2023-04-15T14:29:23;1.33;;;1.20;;
19595;SDS011;9945;46.010;8.946;2023-04-15T14:31:50;1.20;;;1.10;;
19595;SDS011;9945;46.010;8.946;2023-04-15T14:34:17;1.08;;;0.98;;
19595;SDS011;9945;46.010;8.946;2023-04-15T14:36:46;3.70;;;1.33;;
19595;SDS011;9945;46.010;8.946;2023-04-15T14:39:14;2.08;;;1.23;;
19595;SDS011;9945;46.010;8.946;2023-04-15T14:41:41;1.67;;;1.20;;
19595;SDS011;9945;46.010;8.946;2023-04-15T14:44:08;2.80;;;1.65;;
19595;SDS011;9945;46.010;8.946;2023-04-15T14:46:35;1.58;;;1.20;;
19595;SDS011;9945;46.010;8.946;2023-04-15T14:49:02;1.45;;;1.35;;
19595;SDS011;9945;46.010;8.946;2023-04-15T14:51:29;2.63;;;1.50;;
19595;SDS011;9945;46.010;8.946;2023-04-15T14:53:57;2.30;;;1.30;;
19595;SDS011;9945;46.010;8.946;2023-04-15T14:56:25;1.67;;;1.10;;
19595;SDS011;9945;46.010;8.946;2023-04-15T14:58:52;1.88;;;1.20;;
19595;SDS011;9945;46.010;8.946;2023-04-15T15:01:19;1.85;;;1.45;;
19595;SDS011;9945;46.010;8.946;2023-04-15T15:03:46;2.05;;;1.55;;
19595;SDS011;9945;46.010;8.946;2023-04-15T15:06:14;1.83;;;1.30;;
19595;SDS011;9945;46.010;8.946;2023-04-15T15:08:41;4.10;;;1.40;;
19595;SDS011;9945;46.010;8.946;2023-04-15T15:11:08;2.50;;;1.58;;
19595;SDS011;9945;46.010;8.946;2023-04-15T15:13:36;1.70;;;1.17;;
19595;SDS011;9945;46.010;8.946;2023-04-15T15:16:03;2.50;;;1.75;;
19595;SDS011;9945;46.010;8.946;2023-04-15T15:18:30;2.20;;;1.20;;